• Join FlightAware (Why Join?)
  • Login
  • US Flag 
04:22AM EDT


 

Airport Tracker/Info


-or-


 

Live Flight TrackerFlight Track Log ✈ TAM3844 ✈ 14-May-2013 ✈ SBCF / CNF - SBBR / BSB

Flight Track Log - Related Links

Times and Time Zones

All times are in EDT time to prevent confusion due to time zone crossing. See the TAM3844 flight status page for this flight to view local times or setup timezone preferences in your user account.

Time Position Orientation Groundspeed Altitude Reporting Facility
EDT Latitude Longitude Course Direction KTS MPH feet Rate Location/Type
04:53PM -19.6490 -43.9550 142° Southeast 164 189 3,200  Level FlightAware
04:53PM -19.6580 -43.9490 148° Southeast 183 211 3,400 900 Climbing FlightAware
04:54PM -19.6810 -43.9430 166° South 220 253 3,800 1,200 Climbing FlightAware
04:54PM -19.6960 -43.9390 166° South 237 273 4,200 2,400 Climbing FlightAware
04:54PM -19.7260 -43.9230 153° Southeast 233 268 5,600 2,700 Climbing FlightAware
04:55PM -19.7310 -43.9130 118° Southeast 235 270 6,000 2,520 Climbing FlightAware
04:55PM -19.7220 -43.8810 73° East 240 276 7,300 2,520 Climbing FlightAware
04:55PM -19.7070 -43.8730 27° Northeast 245 282 7,900 2,400 Climbing FlightAware
04:56PM -19.6790 -43.8800 347° North 246 283 8,900 2,040 Climbing FlightAware
04:56PM -19.6460 -43.8950 337° Northwest 270 311 9,800 1,560 Climbing FlightAware
04:56PM -19.6320 -43.9060 323° Northwest 283 326 10,100 1,200 Climbing FlightAware
04:57PM -19.5950 -43.9510 311° West 326 375 10,900 960 Climbing FlightAware
04:58PM -19.5450 -44.0130 311° West 346 398 11,600 1,920 Climbing FlightAware
05:01PM -19.3874 -44.1850 314° West  Level Estimated
05:02PM -19.3256 -44.2524 314° West  Level Estimated
05:02PM -19.2760 -44.3300 314° West 392 451 20,000  Level FlightAware
05:03PM -19.1860 -44.4360 312° West 399 459 22,000 1,440 Climbing FlightAware
05:04PM -19.1330 -44.4920 315° West 410 472 22,700 1,320 Climbing FlightAware
05:04PM -19.0700 -44.5510 318° Northwest 412 474 23,900 1,440 Climbing FlightAware
05:05PM -19.0130 -44.6050 318° Northwest 415 478 24,800 1,320 Climbing FlightAware
05:06PM -18.9610 -44.6550 318° Northwest 418 481 25,600 960 Climbing FlightAware
05:07PM -18.8840 -44.7280 318° Northwest 418 481 26,300 1,020 Climbing FlightAware
05:07PM -18.8150 -44.7930 318° Northwest 432 497 27,300 1,140 Climbing FlightAware
05:08PM -18.7290 -44.8730 319° Northwest 443 510 28,200 840 Climbing FlightAware
05:09PM -18.6690 -44.9300 318° Northwest 449 517 28,700 780 Climbing FlightAware
05:10PM -18.6120 -44.9840 318° Northwest 456 525 29,300 840 Climbing FlightAware
05:10PM -18.5350 -45.0560 318° Northwest 463 533 29,900 840 Climbing FlightAware
05:11PM -18.4730 -45.1140 318° Northwest 466 536 30,500 660 Climbing FlightAware
05:12PM -18.3840 -45.1980 318° Northwest 466 536 31,000 1,080 Climbing FlightAware
05:13PM -18.3070 -45.2690 319° Northwest 463 533 32,300 1,140 Climbing FlightAware
05:14PM -18.2270 -45.3450 318° Northwest 461 531 32,900 1,200 Climbing FlightAware
05:14PM -18.1520 -45.4140 319° Northwest 454 522 34,300 1,380 Climbing FlightAware
05:15PM -18.0660 -45.4910 320° Northwest 453 521 35,200 900 Climbing FlightAware
05:16PM -17.9770 -45.5680 321° Northwest 451 519 36,000 480 Climbing FlightAware
05:17PM -17.9160 -45.6220 320° Northwest 447 514 36,000  Level FlightAware
05:18PM -17.8420 -45.6860 321° Northwest 447 514 36,000  Level FlightAware
05:18PM -17.7770 -45.7440 320° Northwest 449 517 36,000  Level FlightAware
05:19PM -17.7070 -45.8050 320° Northwest 448 516 36,000  Level FlightAware
05:20PM -17.6420 -45.8610 321° Northwest 448 516 36,000  Level FlightAware
05:20PM -17.5790 -45.9160 320° Northwest 448 516 36,000  Level FlightAware
05:21PM -17.4660 -46.0150 320° Northwest 446 513 36,000  Level FlightAware
05:22PM -17.4060 -46.0700 319° Northwest 444 511 36,000  Level FlightAware
05:23PM -17.3430 -46.1430 312° West 442 509 36,000  Level FlightAware
05:24PM -17.2880 -46.2050 313° West 443 510 36,000  Level FlightAware
05:24PM -17.2330 -46.2700 312° West 443 510 36,000  Level FlightAware
05:25PM -17.1710 -46.3420 312° West 441 507 36,000  Level FlightAware
05:26PM -17.1110 -46.4110 312° West 441 507 36,000  Level FlightAware
05:26PM -17.0620 -46.4680 312° West 441 507 36,000  Level FlightAware
05:27PM -17.0160 -46.5220 312° West 441 507 36,000  Level FlightAware
05:28PM -16.9580 -46.5890 312° West 441 507 36,000  Level FlightAware
05:28PM -16.9110 -46.6430 312° West 441 507 36,000  Level FlightAware
05:29PM -16.8650 -46.6970 312° West 441 507 36,000  Level FlightAware
05:30PM -16.8190 -46.7510 312° West 441 507 36,000  Level FlightAware
05:31PM -16.7610 -46.8180 312° West 441 507 36,000  Level FlightAware
05:31PM -16.7140 -46.8720 312° West 441 507 36,000  Level FlightAware
05:32PM -16.6680 -46.9260 312° West 441 507 36,000  Level FlightAware
05:33PM -16.6210 -46.9790 313° West 441 507 36,000  Level FlightAware
05:33PM -16.5750 -47.0330 312° West 441 507 36,000  Level FlightAware
05:34PM -16.5170 -47.1000 312° West 441 507 36,000  Level FlightAware
05:35PM -16.4700 -47.1540 312° West 441 507 36,000  Level FlightAware
05:35PM -16.4240 -47.2080 312° West 441 507 36,000 -7,980 Level FlightAware
05:36PM -16.2770 -47.3600 315° West 20,700 -11,520 Descending FlightAware
05:37PM -16.2110 -47.4300 314° West 389 448 18,800 -2,160 Descending FlightAware
05:38PM -16.1650 -47.4790 314° West 386 444 17,500 -2,220 Descending FlightAware
05:38PM -16.1100 -47.5360 315° West 383 441 15,900 -2,100 Descending FlightAware
05:39PM -16.0500 -47.6000 314° West 378 435 14,400 -1,860 Descending FlightAware
05:40PM -16.0010 -47.6510 315° West 359 413 13,300 -1,680 Descending FlightAware
05:40PM -15.9620 -47.7070 306° West 351 404 12,100 -1,560 Descending FlightAware
05:41PM -15.9620 -47.7210 270° West 339 390 12,000 -120 Descending FlightAware
05:41PM -15.9660 -47.7940 267° West 283 326 12,000  Level FlightAware
05:42PM -15.9700 -47.8560 266° West 252 290 12,000  Level FlightAware
05:43PM -15.9730 -47.9040 266° West 252 290 12,000  Level FlightAware
05:44PM -15.9760 -47.9460 266° West 252 290 12,000 -1,080 Level FlightAware
05:44PM -15.9800 -48.0090 266° West 251 289 10,500 -1,200 Descending FlightAware
05:45PM -15.9830 -48.0540 266° West 251 289 10,300 -960 Descending FlightAware
05:46PM -15.9680 -48.1270 282° West 243 280 8,900 -1,320 Descending FlightAware
05:46PM -15.9550 -48.1330 336° Northwest 239 275 8,700 -900 Descending FlightAware
05:46PM -15.9500 -48.1330 360° North 237 273 8,600 -1,200 Descending FlightAware
05:47PM -15.9160 -48.1280 North 229 264 7,900 -1,320 Descending FlightAware
05:47PM -15.8940 -48.1040 46° Northeast 193 222 7,200 -1,380 Descending FlightAware
05:48PM -15.8920 -48.0970 73° East 187 215 7,000 -1,980 Descending FlightAware
05:48PM -15.8880 -48.0590 84° East 167 192 5,400 -1,380 Descending FlightAware
05:49PM -15.8870 -48.0400 87° East 167 192 5,400 -720 Level FlightAware
05:49PM -15.8870 -48.0340 90° East 161 185 5,000 -720 Descending FlightAware
05:50PM -15.8850 -48.0090 85° East 161 185 4,900 -180 Descending FlightAware
05:52PM -15.8626 -47.9127 76° East  Level Estimated